sensor_id;sensor_type;location;lat;lon;timestamp;P1;durP1;ratioP1;P2;durP2;ratioP2
1887;SDS011;944;51.574;6.980;2023-01-19T00:03:40;27.17;;;15.20;;
1887;SDS011;944;51.574;6.980;2023-01-19T00:06:34;26.93;;;15.33;;
1887;SDS011;944;51.574;6.980;2023-01-19T00:16:10;24.50;;;14.87;;
1887;SDS011;944;51.574;6.980;2023-01-19T00:21:45;23.27;;;14.30;;
1887;SDS011;944;51.574;6.980;2023-01-19T02:07:00;31.33;;;15.67;;
1887;SDS011;944;51.574;6.980;2023-01-19T02:14:14;22.90;;;15.43;;
1887;SDS011;944;51.574;6.980;2023-01-19T02:20:32;36.27;;;17.53;;
1887;SDS011;944;51.574;6.980;2023-01-19T02:23:49;28.37;;;15.63;;
1887;SDS011;944;51.574;6.980;2023-01-19T02:30:14;34.13;;;17.43;;
1887;SDS011;944;51.574;6.980;2023-01-19T02:36:41;26.20;;;16.90;;
1887;SDS011;944;51.574;6.980;2023-01-19T02:40:07;26.60;;;15.97;;
1887;SDS011;944;51.574;6.980;2023-01-19T02:43:47;26.00;;;16.83;;
1887;SDS011;944;51.574;6.980;2023-01-19T02:47:03;33.27;;;16.70;;
1887;SDS011;944;51.574;6.980;2023-01-19T03:04:24;26.17;;;16.47;;
1887;SDS011;944;51.574;6.980;2023-01-19T03:30:40;26.17;;;15.90;;
1887;SDS011;944;51.574;6.980;2023-01-19T03:37:41;22.47;;;14.30;;
1887;SDS011;944;51.574;6.980;2023-01-19T03:54:47;29.07;;;15.27;;
1887;SDS011;944;51.574;6.980;2023-01-19T03:57:52;26.20;;;15.17;;
1887;SDS011;944;51.574;6.980;2023-01-19T04:01:07;25.97;;;14.63;;
1887;SDS011;944;51.574;6.980;2023-01-19T04:04:42;28.67;;;15.10;;
1887;SDS011;944;51.574;6.980;2023-01-19T04:07:36;25.70;;;15.67;;
1887;SDS011;944;51.574;6.980;2023-01-19T04:11:33;38.07;;;14.93;;
1887;SDS011;944;51.574;6.980;2023-01-19T04:14:31;26.50;;;14.90;;
1887;SDS011;944;51.574;6.980;2023-01-19T04:17:44;27.43;;;16.27;;
1887;SDS011;944;51.574;6.980;2023-01-19T05:51:24;43.17;;;24.07;;
1887;SDS011;944;51.574;6.980;2023-01-19T05:54:27;48.73;;;24.70;;
1887;SDS011;944;51.574;6.980;2023-01-19T07:42:03;49.27;;;20.60;;
1887;SDS011;944;51.574;6.980;2023-01-19T07:54:55;38.50;;;19.20;;
1887;SDS011;944;51.574;6.980;2023-01-19T07:57:30;42.37;;;18.33;;
1887;SDS011;944;51.574;6.980;2023-01-19T08:00:17;51.17;;;19.93;;
1887;SDS011;944;51.574;6.980;2023-01-19T08:03:04;48.33;;;21.03;;
1887;SDS011;944;51.574;6.980;2023-01-19T08:05:47;53.07;;;21.50;;
1887;SDS011;944;51.574;6.980;2023-01-19T08:08:43;40.23;;;19.10;;
1887;SDS011;944;51.574;6.980;2023-01-19T08:11:16;43.23;;;19.50;;
1887;SDS011;944;51.574;6.980;2023-01-19T08:14:19;46.17;;;20.53;;
1887;SDS011;944;51.574;6.980;2023-01-19T08:17:00;38.00;;;19.80;;
1887;SDS011;944;51.574;6.980;2023-01-19T08:23:40;43.90;;;19.67;;
1887;SDS011;944;51.574;6.980;2023-01-19T08:30:12;47.73;;;19.87;;
1887;SDS011;944;51.574;6.980;2023-01-19T08:32:47;33.93;;;19.50;;
1887;SDS011;944;51.574;6.980;2023-01-19T08:35:15;39.97;;;21.30;;
1887;SDS011;944;51.574;6.980;2023-01-19T08:37:42;39.90;;;21.27;;
1887;SDS011;944;51.574;6.980;2023-01-19T08:40:10;42.03;;;23.60;;
1887;SDS011;944;51.574;6.980;2023-01-19T08:42:38;40.30;;;21.97;;
1887;SDS011;944;51.574;6.980;2023-01-19T08:45:07;37.70;;;22.10;;
1887;SDS011;944;51.574;6.980;2023-01-19T08:47:39;46.10;;;24.13;;
1887;SDS011;944;51.574;6.980;2023-01-19T08:50:08;50.83;;;24.40;;
1887;SDS011;944;51.574;6.980;2023-01-19T08:52:36;60.70;;;25.83;;
1887;SDS011;944;51.574;6.980;2023-01-19T08:55:04;46.17;;;25.87;;
1887;SDS011;944;51.574;6.980;2023-01-19T08:57:33;45.30;;;25.63;;
1887;SDS011;944;51.574;6.980;2023-01-19T09:00:14;48.50;;;25.90;;
1887;SDS011;944;51.574;6.980;2023-01-19T09:06:27;56.53;;;25.93;;
1887;SDS011;944;51.574;6.980;2023-01-19T09:09:03;52.73;;;28.50;;
1887;SDS011;944;51.574;6.980;2023-01-19T09:11:31;59.03;;;29.37;;
1887;SDS011;944;51.574;6.980;2023-01-19T14:01:56;76.53;;;36.07;;
1887;SDS011;944;51.574;6.980;2023-01-19T14:09:20;73.97;;;35.60;;
1887;SDS011;944;51.574;6.980;2023-01-19T14:12:12;65.70;;;32.53;;
1887;SDS011;944;51.574;6.980;2023-01-19T14:14:53;77.60;;;33.30;;
1887;SDS011;944;51.574;6.980;2023-01-19T14:20:57;63.27;;;32.50;;
1887;SDS011;944;51.574;6.980;2023-01-19T14:24:20;65.63;;;30.33;;
1887;SDS011;944;51.574;6.980;2023-01-19T14:26:49;69.90;;;30.43;;
1887;SDS011;944;51.574;6.980;2023-01-19T14:30:21;60.73;;;28.83;;
1887;SDS011;944;51.574;6.980;2023-01-19T14:33:04;65.63;;;28.30;;
1887;SDS011;944;51.574;6.980;2023-01-19T15:39:07;39.43;;;20.30;;
1887;SDS011;944;51.574;6.980;2023-01-19T15:41:38;39.53;;;20.80;;
1887;SDS011;944;51.574;6.980;2023-01-19T15:44:10;40.50;;;22.17;;
1887;SDS011;944;51.574;6.980;2023-01-19T15:46:50;45.53;;;21.50;;
1887;SDS011;944;51.574;6.980;2023-01-19T15:52:57;46.90;;;20.23;;
1887;SDS011;944;51.574;6.980;2023-01-19T15:59:35;36.00;;;19.63;;
1887;SDS011;944;51.574;6.980;2023-01-19T16:06:28;39.53;;;19.90;;
1887;SDS011;944;51.574;6.980;2023-01-19T16:06:29;40.70;;;19.10;;
1887;SDS011;944;51.574;6.980;2023-01-19T16:38:53;37.50;;;19.10;;
1887;SDS011;944;51.574;6.980;2023-01-19T16:41:54;51.47;;;21.10;;
1887;SDS011;944;51.574;6.980;2023-01-19T16:44:22;45.70;;;21.57;;
1887;SDS011;944;51.574;6.980;2023-01-19T16:46:51;38.63;;;19.17;;
1887;SDS011;944;51.574;6.980;2023-01-19T16:49:36;49.37;;;19.83;;
1887;SDS011;944;51.574;6.980;2023-01-19T16:52:38;40.53;;;20.23;;
1887;SDS011;944;51.574;6.980;2023-01-19T16:55:30;44.40;;;19.50;;
1887;SDS011;944;51.574;6.980;2023-01-19T16:58:47;38.00;;;19.87;;
1887;SDS011;944;51.574;6.980;2023-01-19T17:02:01;48.07;;;20.97;;
1887;SDS011;944;51.574;6.980;2023-01-19T17:14:56;37.97;;;18.80;;
1887;SDS011;944;51.574;6.980;2023-01-19T17:37:00;44.33;;;20.60;;
1887;SDS011;944;51.574;6.980;2023-01-19T17:39:29;34.40;;;18.50;;
1887;SDS011;944;51.574;6.980;2023-01-19T17:45:39;42.90;;;20.87;;
1887;SDS011;944;51.574;6.980;2023-01-19T17:48:19;42.53;;;21.00;;
1887;SDS011;944;51.574;6.980;2023-01-19T17:50:46;47.97;;;23.47;;
1887;SDS011;944;51.574;6.980;2023-01-19T17:53:15;47.90;;;21.73;;
1887;SDS011;944;51.574;6.980;2023-01-19T17:55:45;52.87;;;24.37;;
1887;SDS011;944;51.574;6.980;2023-01-19T17:58:13;47.87;;;24.00;;
1887;SDS011;944;51.574;6.980;2023-01-19T18:00:40;43.23;;;22.20;;
1887;SDS011;944;51.574;6.980;2023-01-19T18:03:36;48.50;;;23.00;;
1887;SDS011;944;51.574;6.980;2023-01-19T18:06:07;59.37;;;26.30;;
1887;SDS011;944;51.574;6.980;2023-01-19T18:12:03;61.83;;;25.70;;
1887;SDS011;944;51.574;6.980;2023-01-19T18:54:11;56.63;;;26.67;;
1887;SDS011;944;51.574;6.980;2023-01-19T18:56:58;71.77;;;30.80;;
1887;SDS011;944;51.574;6.980;2023-01-19T18:59:27;64.20;;;27.67;;
1887;SDS011;944;51.574;6.980;2023-01-19T19:02:11;51.23;;;25.60;;
1887;SDS011;944;51.574;6.980;2023-01-19T19:04:49;54.67;;;25.53;;
1887;SDS011;944;51.574;6.980;2023-01-19T19:07:26;59.73;;;25.97;;
1887;SDS011;944;51.574;6.980;2023-01-19T19:10:06;51.43;;;25.60;;
1887;SDS011;944;51.574;6.980;2023-01-19T19:13:23;57.73;;;26.27;;
1887;SDS011;944;51.574;6.980;2023-01-19T19:16:01;73.07;;;31.03;;
1887;SDS011;944;51.574;6.980;2023-01-19T19:18:32;57.77;;;26.47;;
1887;SDS011;944;51.574;6.980;2023-01-19T19:21:05;56.73;;;25.23;;
1887;SDS011;944;51.574;6.980;2023-01-19T19:23:35;54.93;;;26.10;;
1887;SDS011;944;51.574;6.980;2023-01-19T19:26:09;49.17;;;26.20;;
1887;SDS011;944;51.574;6.980;2023-01-19T19:28:38;55.43;;;24.87;;
1887;SDS011;944;51.574;6.980;2023-01-19T19:32:08;52.50;;;26.33;;
1887;SDS011;944;51.574;6.980;2023-01-19T19:38:59;51.77;;;26.63;;
1887;SDS011;944;51.574;6.980;2023-01-19T20:30:02;61.80;;;26.27;;
1887;SDS011;944;51.574;6.980;2023-01-19T20:32:50;58.30;;;26.00;;
1887;SDS011;944;51.574;6.980;2023-01-19T20:35:51;61.10;;;28.00;;
1887;SDS011;944;51.574;6.980;2023-01-19T20:44:50;56.63;;;27.90;;
1887;SDS011;944;51.574;6.980;2023-01-19T20:47:21;54.77;;;26.70;;
1887;SDS011;944;51.574;6.980;2023-01-19T21:00:26;56.47;;;29.00;;
1887;SDS011;944;51.574;6.980;2023-01-19T21:03:01;51.67;;;27.93;;
1887;SDS011;944;51.574;6.980;2023-01-19T21:05:46;59.00;;;27.50;;
1887;SDS011;944;51.574;6.980;2023-01-19T21:08:42;50.63;;;26.40;;
1887;SDS011;944;51.574;6.980;2023-01-19T21:11:15;64.20;;;28.70;;
1887;SDS011;944;51.574;6.980;2023-01-19T21:14:17;55.07;;;26.77;;
1887;SDS011;944;51.574;6.980;2023-01-19T21:29:26;55.70;;;29.23;;
1887;SDS011;944;51.574;6.980;2023-01-19T21:32:20;48.87;;;26.07;;
1887;SDS011;944;51.574;6.980;2023-01-19T21:34:54;57.20;;;27.37;;
1887;SDS011;944;51.574;6.980;2023-01-19T21:37:24;63.63;;;27.07;;
1887;SDS011;944;51.574;6.980;2023-01-19T21:39:54;55.90;;;28.00;;
1887;SDS011;944;51.574;6.980;2023-01-19T21:42:28;59.77;;;28.90;;
1887;SDS011;944;51.574;6.980;2023-01-19T21:45:04;56.80;;;28.07;;
1887;SDS011;944;51.574;6.980;2023-01-19T21:47:33;53.00;;;27.70;;
1887;SDS011;944;51.574;6.980;2023-01-19T21:50:01;55.70;;;27.80;;
1887;SDS011;944;51.574;6.980;2023-01-19T21:52:28;56.37;;;27.97;;
1887;SDS011;944;51.574;6.980;2023-01-19T21:54:55;58.30;;;26.70;;
1887;SDS011;944;51.574;6.980;2023-01-19T21:57:26;58.97;;;27.30;;
1887;SDS011;944;51.574;6.980;2023-01-19T21:59:56;65.50;;;27.63;;
1887;SDS011;944;51.574;6.980;2023-01-19T22:02:42;54.40;;;28.37;;
1887;SDS011;944;51.574;6.980;2023-01-19T22:26:11;57.93;;;25.37;;
1887;SDS011;944;51.574;6.980;2023-01-19T22:28:40;53.27;;;27.00;;
1887;SDS011;944;51.574;6.980;2023-01-19T22:31:17;55.40;;;27.47;;
1887;SDS011;944;51.574;6.980;2023-01-19T22:33:44;62.60;;;26.93;;
1887;SDS011;944;51.574;6.980;2023-01-19T22:36:15;54.13;;;26.43;;
1887;SDS011;944;51.574;6.980;2023-01-19T22:38:47;56.30;;;27.53;;
1887;SDS011;944;51.574;6.980;2023-01-19T22:41:18;64.37;;;28.43;;
1887;SDS011;944;51.574;6.980;2023-01-19T22:43:48;60.53;;;29.00;;
1887;SDS011;944;51.574;6.980;2023-01-19T22:46:17;56.57;;;28.13;;
1887;SDS011;944;51.574;6.980;2023-01-19T22:48:46;64.93;;;30.67;;
1887;SDS011;944;51.574;6.980;2023-01-19T23:27:32;69.30;;;34.40;;
1887;SDS011;944;51.574;6.980;2023-01-19T23:29:59;65.03;;;33.43;;
1887;SDS011;944;51.574;6.980;2023-01-19T23:32:26;61.47;;;33.33;;
1887;SDS011;944;51.574;6.980;2023-01-19T23:34:53;58.33;;;30.53;;
1887;SDS011;944;51.574;6.980;2023-01-19T23:37:20;71.53;;;32.70;;
1887;SDS011;944;51.574;6.980;2023-01-19T23:39:47;78.43;;;34.50;;
1887;SDS011;944;51.574;6.980;2023-01-19T23:42:20;82.20;;;34.63;;
1887;SDS011;944;51.574;6.980;2023-01-19T23:44:52;92.80;;;35.50;;
1887;SDS011;944;51.574;6.980;2023-01-19T23:47:19;80.50;;;36.17;;
1887;SDS011;944;51.574;6.980;2023-01-19T23:49:49;86.13;;;37.00;;
1887;SDS011;944;51.574;6.980;2023-01-19T23:52:16;82.03;;;37.23;;
1887;SDS011;944;51.574;6.980;2023-01-19T23:54:43;98.73;;;37.80;;
1887;SDS011;944;51.574;6.980;2023-01-19T23:57:10;99.87;;;41.00;;
1887;SDS011;944;51.574;6.980;2023-01-19T23:59:37;85.63;;;37.07;;
